Detall de PIREP

Printer-friendly versionPDF version

[2015/03/24 15:07:00]
Flight IATA:CT0001
Pilot Number:031
Company ICAO:CAT
Aircraft Type:AT72/F
PAX:21
Departing Airport: LEVC
Destination Airport: LEBL
Alternate Airport:LEPA
Online: VATSIM
Route:TATOS A34 CASPE
Flight Level:F180
No Slew and time accel
No pause
Crash detect
Detect pilot in Cockpit between each 30 and 45 minutes
15:07 Zero fuel Weight: 34736 Lbs, Fuel Weight: 3472 Lbs
15:07 VATSIM:LEVC 220900Z 34004KT 310V010 9999 FEW003 SCT013 BKN015 11/11 Q1009 NOSIG
15:07 VATSIM:LEBL 220900Z 07006KT 030V100 9999 FEW025 13/08 Q1010 NOSIG
15:07 Parking Brakes off
15:12 Take-off
15:12 Take off Weight: 38157 Lbs
15:12 Wind: 001º @ 002 Knots Heading: 114º
15:12 POS N39º 29´ 24´´ W000º 29´ 00´´
15:12 Flaps:1 at 134 Knots
15:12 Gear Up: 135 Knots
15:13 Flaps:0 at 131 Knots
15:19 TOC
15:19 Fuel Weight: 3147 Lb
15:27 Wind:000º@000 Knots Heading: 016º Ground Speed: 290 Knots Altitude 17877 ft
15:42 Wind:000º@000 Knots Heading: 086º Ground Speed: 289 Knots Altitude 17893 ft
15:50 TOD
15:50 Fuel Weight: 2110 Lb
15:57 Wind:000º@000 Knots Heading: 067º Ground Speed: 217 Knots Altitude 10511 ft
16:05 Flaps:1 at 159 Knots
16:07 Gear Down: 121 Knots
16:07 Flaps:2 at 100 Knots
16:09 TouchDown:Rate -468 ft/min Speed: 98 Knots
16:09 Flaps:0 at 35 Knots
16:09 VATSIM:LEBL 221030Z 08009KT 9999 FEW030 14/08 Q1010 NOSIG
16:09 Land
16:09 Wind:000º@000 Knots
16:09 Heading: 244º
16:09 Flight Duration: 00:57
16:09 Landing Weight: 36667 Lbs
16:09 POS N41º 17´ 24´´ E002º 05´ 37´´
16:13 Parking brakes on
16:13 Block to Block Duration: 01:06
16:13 Final Fuel: 1906 Lbls
16:13 Spent Fuel: 1565 Lbls
16:13 Flight Length: 238 NM
16:13 TOD Land Length: 65 NM

Exportar CSV

Powered by Drupal - Modified by Danger4k